sensor_id;sensor_type;location;lat;lon;timestamp;P1;durP1;ratioP1;P2;durP2;ratioP2
76296;SDS011;65104;52.994;6.552;2023-01-10T00:02:22;9.57;;;2.40;;
76296;SDS011;65104;52.994;6.552;2023-01-10T00:04:48;7.80;;;2.42;;
76296;SDS011;65104;52.994;6.552;2023-01-10T00:07:13;11.63;;;3.47;;
76296;SDS011;65104;52.994;6.552;2023-01-10T00:09:39;13.68;;;2.10;;
76296;SDS011;65104;52.994;6.552;2023-01-10T00:12:04;6.55;;;1.80;;
76296;SDS011;65104;52.994;6.552;2023-01-10T00:14:49;6.00;;;1.45;;
76296;SDS011;65104;52.994;6.552;2023-01-10T00:17:14;8.32;;;2.35;;
76296;SDS011;65104;52.994;6.552;2023-01-10T00:19:40;8.85;;;2.53;;
76296;SDS011;65104;52.994;6.552;2023-01-10T00:22:06;11.85;;;2.28;;
76296;SDS011;65104;52.994;6.552;2023-01-10T00:24:33;9.80;;;2.08;;
76296;SDS011;65104;52.994;6.552;2023-01-10T00:26:59;9.80;;;1.98;;
76296;SDS011;65104;52.994;6.552;2023-01-10T00:29:27;9.98;;;2.08;;
76296;SDS011;65104;52.994;6.552;2023-01-10T00:31:56;7.20;;;1.58;;
76296;SDS011;65104;52.994;6.552;2023-01-10T00:34:21;7.32;;;1.90;;
76296;SDS011;65104;52.994;6.552;2023-01-10T00:36:48;10.05;;;1.95;;
76296;SDS011;65104;52.994;6.552;2023-01-10T00:39:14;9.20;;;1.88;;
76296;SDS011;65104;52.994;6.552;2023-01-10T00:41:44;9.77;;;2.17;;
76296;SDS011;65104;52.994;6.552;2023-01-10T00:44:28;7.75;;;2.42;;
76296;SDS011;65104;52.994;6.552;2023-01-10T00:46:53;6.40;;;1.85;;
76296;SDS011;65104;52.994;6.552;2023-01-10T00:49:19;5.70;;;1.80;;
76296;SDS011;65104;52.994;6.552;2023-01-10T00:51:45;9.95;;;1.75;;
76296;SDS011;65104;52.994;6.552;2023-01-10T00:54:11;13.55;;;1.90;;
76296;SDS011;65104;52.994;6.552;2023-01-10T00:56:39;9.75;;;2.20;;
76296;SDS011;65104;52.994;6.552;2023-01-10T00:59:05;10.10;;;2.38;;
76296;SDS011;65104;52.994;6.552;2023-01-10T01:01:30;10.68;;;2.65;;
76296;SDS011;65104;52.994;6.552;2023-01-10T01:03:57;6.78;;;1.92;;
76296;SDS011;65104;52.994;6.552;2023-01-10T01:06:25;7.80;;;1.73;;
76296;SDS011;65104;52.994;6.552;2023-01-10T01:08:52;9.98;;;1.73;;
76296;SDS011;65104;52.994;6.552;2023-01-10T01:11:17;11.07;;;2.05;;
76296;SDS011;65104;52.994;6.552;2023-01-10T01:13:43;9.85;;;2.15;;
76296;SDS011;65104;52.994;6.552;2023-01-10T01:16:08;9.07;;;2.65;;
76296;SDS011;65104;52.994;6.552;2023-01-10T01:18:34;6.88;;;1.73;;
76296;SDS011;65104;52.994;6.552;2023-01-10T01:21:00;8.77;;;1.90;;
76296;SDS011;65104;52.994;6.552;2023-01-10T01:25:55;5.07;;;1.70;;
76296;SDS011;65104;52.994;6.552;2023-01-10T01:28:22;8.88;;;1.75;;
76296;SDS011;65104;52.994;6.552;2023-01-10T01:30:48;16.80;;;2.40;;
76296;SDS011;65104;52.994;6.552;2023-01-10T01:33:14;11.90;;;1.75;;
76296;SDS011;65104;52.994;6.552;2023-01-10T01:35:41;10.05;;;2.05;;
76296;SDS011;65104;52.994;6.552;2023-01-10T01:38:08;11.00;;;2.70;;
76296;SDS011;65104;52.994;6.552;2023-01-10T01:40:34;6.20;;;1.98;;
76296;SDS011;65104;52.994;6.552;2023-01-10T01:43:01;8.63;;;2.25;;
76296;SDS011;65104;52.994;6.552;2023-01-10T01:48:18;4.35;;;1.60;;
76296;SDS011;65104;52.994;6.552;2023-01-10T01:51:07;9.65;;;1.83;;
76296;SDS011;65104;52.994;6.552;2023-01-10T01:53:43;6.45;;;1.88;;
76296;SDS011;65104;52.994;6.552;2023-01-10T01:56:15;8.73;;;2.47;;
76296;SDS011;65104;52.994;6.552;2023-01-10T01:58:46;6.85;;;1.50;;
76296;SDS011;65104;52.994;6.552;2023-01-10T02:01:26;9.60;;;1.98;;
76296;SDS011;65104;52.994;6.552;2023-01-10T02:03:56;9.85;;;2.28;;
76296;SDS011;65104;52.994;6.552;2023-01-10T02:06:32;9.70;;;1.70;;
76296;SDS011;65104;52.994;6.552;2023-01-10T02:08:59;14.48;;;2.47;;
76296;SDS011;65104;52.994;6.552;2023-01-10T02:11:33;8.93;;;1.77;;
76296;SDS011;65104;52.994;6.552;2023-01-10T02:13:58;4.60;;;1.35;;
76296;SDS011;65104;52.994;6.552;2023-01-10T02:16:25;5.07;;;2.00;;
76296;SDS011;65104;52.994;6.552;2023-01-10T02:18:51;10.25;;;2.17;;
76296;SDS011;65104;52.994;6.552;2023-01-10T02:25:05;7.15;;;1.90;;
76296;SDS011;65104;52.994;6.552;2023-01-10T02:27:44;9.00;;;2.00;;
76296;SDS011;65104;52.994;6.552;2023-01-10T02:39:28;7.88;;;2.42;;
76296;SDS011;65104;52.994;6.552;2023-01-10T02:42:12;8.50;;;2.20;;
76296;SDS011;65104;52.994;6.552;2023-01-10T02:47:58;5.88;;;1.90;;
76296;SDS011;65104;52.994;6.552;2023-01-10T02:53:18;9.43;;;2.20;;
76296;SDS011;65104;52.994;6.552;2023-01-10T03:15:30;11.93;;;2.20;;
76296;SDS011;65104;52.994;6.552;2023-01-10T03:18:00;9.60;;;1.92;;
76296;SDS011;65104;52.994;6.552;2023-01-10T03:20:31;6.97;;;1.77;;
76296;SDS011;65104;52.994;6.552;2023-01-10T03:23:00;10.20;;;1.58;;
76296;SDS011;65104;52.994;6.552;2023-01-10T03:25:30;11.13;;;2.10;;
76296;SDS011;65104;52.994;6.552;2023-01-10T03:28:08;5.53;;;1.60;;
76296;SDS011;65104;52.994;6.552;2023-01-10T03:30:41;12.98;;;2.55;;
76296;SDS011;65104;52.994;6.552;2023-01-10T03:33:17;9.57;;;1.55;;
76296;SDS011;65104;52.994;6.552;2023-01-10T03:49:46;10.70;;;2.65;;
76296;SDS011;65104;52.994;6.552;2023-01-10T03:52:14;9.18;;;2.22;;
76296;SDS011;65104;52.994;6.552;2023-01-10T03:54:42;10.07;;;2.42;;
76296;SDS011;65104;52.994;6.552;2023-01-10T03:57:13;7.15;;;1.80;;
76296;SDS011;65104;52.994;6.552;2023-01-10T03:59:41;13.45;;;3.47;;
76296;SDS011;65104;52.994;6.552;2023-01-10T04:02:07;5.93;;;2.13;;
76296;SDS011;65104;52.994;6.552;2023-01-10T04:04:33;7.15;;;2.15;;
76296;SDS011;65104;52.994;6.552;2023-01-10T04:06:59;8.02;;;1.85;;
76296;SDS011;65104;52.994;6.552;2023-01-10T04:09:25;10.95;;;2.40;;
76296;SDS011;65104;52.994;6.552;2023-01-10T04:11:51;10.32;;;2.50;;
76296;SDS011;65104;52.994;6.552;2023-01-10T04:14:17;8.35;;;2.20;;
76296;SDS011;65104;52.994;6.552;2023-01-10T04:16:43;9.25;;;2.42;;
76296;SDS011;65104;52.994;6.552;2023-01-10T04:19:08;12.70;;;2.97;;
76296;SDS011;65104;52.994;6.552;2023-01-10T04:21:34;7.38;;;2.00;;
76296;SDS011;65104;52.994;6.552;2023-01-10T04:24:00;10.88;;;3.08;;
76296;SDS011;65104;52.994;6.552;2023-01-10T04:26:26;7.68;;;2.03;;
76296;SDS011;65104;52.994;6.552;2023-01-10T04:28:52;7.32;;;2.22;;
76296;SDS011;65104;52.994;6.552;2023-01-10T04:31:17;12.73;;;1.92;;
76296;SDS011;65104;52.994;6.552;2023-01-10T04:33:43;10.15;;;1.85;;
76296;SDS011;65104;52.994;6.552;2023-01-10T04:36:08;9.77;;;2.50;;
76296;SDS011;65104;52.994;6.552;2023-01-10T04:38:34;6.03;;;2.15;;
76296;SDS011;65104;52.994;6.552;2023-01-10T04:41:00;11.30;;;2.45;;
76296;SDS011;65104;52.994;6.552;2023-01-10T04:43:26;5.97;;;2.55;;
76296;SDS011;65104;52.994;6.552;2023-01-10T04:45:52;7.75;;;1.77;;
76296;SDS011;65104;52.994;6.552;2023-01-10T04:48:17;13.63;;;2.28;;
76296;SDS011;65104;52.994;6.552;2023-01-10T04:50:50;6.75;;;2.05;;
76296;SDS011;65104;52.994;6.552;2023-01-10T04:53:16;5.70;;;1.75;;
76296;SDS011;65104;52.994;6.552;2023-01-10T04:55:43;10.35;;;2.42;;
76296;SDS011;65104;52.994;6.552;2023-01-10T04:58:08;8.27;;;2.17;;
76296;SDS011;65104;52.994;6.552;2023-01-10T05:00:34;7.72;;;2.40;;
76296;SDS011;65104;52.994;6.552;2023-01-10T05:03:00;10.35;;;2.97;;
76296;SDS011;65104;52.994;6.552;2023-01-10T05:05:25;8.55;;;2.80;;
76296;SDS011;65104;52.994;6.552;2023-01-10T05:07:53;9.00;;;2.45;;
76296;SDS011;65104;52.994;6.552;2023-01-10T05:10:18;9.45;;;2.58;;
76296;SDS011;65104;52.994;6.552;2023-01-10T05:12:44;7.00;;;2.92;;
76296;SDS011;65104;52.994;6.552;2023-01-10T05:15:10;13.90;;;3.22;;
76296;SDS011;65104;52.994;6.552;2023-01-10T05:17:37;6.07;;;2.63;;
76296;SDS011;65104;52.994;6.552;2023-01-10T05:20:03;12.02;;;2.97;;
76296;SDS011;65104;52.994;6.552;2023-01-10T05:22:28;10.48;;;3.75;;
76296;SDS011;65104;52.994;6.552;2023-01-10T05:24:55;11.65;;;3.22;;
76296;SDS011;65104;52.994;6.552;2023-01-10T05:27:20;9.90;;;2.53;;
76296;SDS011;65104;52.994;6.552;2023-01-10T05:29:46;8.75;;;3.30;;
76296;SDS011;65104;52.994;6.552;2023-01-10T05:32:12;9.80;;;2.60;;
76296;SDS011;65104;52.994;6.552;2023-01-10T05:34:37;14.98;;;2.53;;
76296;SDS011;65104;52.994;6.552;2023-01-10T05:37:03;9.45;;;2.85;;
76296;SDS011;65104;52.994;6.552;2023-01-10T05:39:28;7.72;;;3.10;;
76296;SDS011;65104;52.994;6.552;2023-01-10T05:41:54;9.00;;;2.50;;
76296;SDS011;65104;52.994;6.552;2023-01-10T05:44:20;11.38;;;2.42;;
76296;SDS011;65104;52.994;6.552;2023-01-10T05:46:46;11.23;;;2.40;;
76296;SDS011;65104;52.994;6.552;2023-01-10T05:49:11;7.65;;;2.42;;
76296;SDS011;65104;52.994;6.552;2023-01-10T05:51:37;6.53;;;2.25;;
76296;SDS011;65104;52.994;6.552;2023-01-10T05:54:03;10.55;;;2.50;;
76296;SDS011;65104;52.994;6.552;2023-01-10T05:56:29;7.70;;;2.03;;
76296;SDS011;65104;52.994;6.552;2023-01-10T05:58:55;6.63;;;2.08;;
76296;SDS011;65104;52.994;6.552;2023-01-10T06:01:21;8.93;;;2.53;;
76296;SDS011;65104;52.994;6.552;2023-01-10T06:03:47;5.60;;;1.98;;
76296;SDS011;65104;52.994;6.552;2023-01-10T06:06:12;9.25;;;2.10;;
76296;SDS011;65104;52.994;6.552;2023-01-10T06:08:39;9.50;;;2.22;;
76296;SDS011;65104;52.994;6.552;2023-01-10T06:11:05;7.22;;;1.80;;
76296;SDS011;65104;52.994;6.552;2023-01-10T06:13:32;6.50;;;1.80;;
76296;SDS011;65104;52.994;6.552;2023-01-10T06:15:58;10.30;;;1.85;;
76296;SDS011;65104;52.994;6.552;2023-01-10T06:18:24;8.10;;;1.95;;
76296;SDS011;65104;52.994;6.552;2023-01-10T06:20:50;8.45;;;2.10;;
76296;SDS011;65104;52.994;6.552;2023-01-10T06:23:15;6.25;;;1.70;;
76296;SDS011;65104;52.994;6.552;2023-01-10T06:25:41;8.65;;;1.70;;
76296;SDS011;65104;52.994;6.552;2023-01-10T06:28:07;4.10;;;1.38;;
76296;SDS011;65104;52.994;6.552;2023-01-10T06:30:34;3.25;;;1.40;;
76296;SDS011;65104;52.994;6.552;2023-01-10T06:33:00;4.40;;;1.60;;
76296;SDS011;65104;52.994;6.552;2023-01-10T06:35:27;4.78;;;1.50;;
76296;SDS011;65104;52.994;6.552;2023-01-10T06:37:54;4.82;;;1.33;;
76296;SDS011;65104;52.994;6.552;2023-01-10T06:40:19;7.00;;;1.40;;
76296;SDS011;65104;52.994;6.552;2023-01-10T06:42:45;5.53;;;1.63;;
76296;SDS011;65104;52.994;6.552;2023-01-10T06:45:11;7.50;;;1.90;;
76296;SDS011;65104;52.994;6.552;2023-01-10T06:47:37;6.32;;;1.60;;
76296;SDS011;65104;52.994;6.552;2023-01-10T06:50:03;6.47;;;1.58;;
76296;SDS011;65104;52.994;6.552;2023-01-10T06:52:30;7.47;;;1.98;;
76296;SDS011;65104;52.994;6.552;2023-01-10T06:54:57;5.45;;;1.77;;
76296;SDS011;65104;52.994;6.552;2023-01-10T06:57:23;7.57;;;2.05;;
76296;SDS011;65104;52.994;6.552;2023-01-10T06:59:49;6.80;;;3.10;;
76296;SDS011;65104;52.994;6.552;2023-01-10T07:02:14;12.32;;;3.20;;
76296;SDS011;65104;52.994;6.552;2023-01-10T07:04:40;12.30;;;3.70;;
76296;SDS011;65104;52.994;6.552;2023-01-10T07:07:06;8.43;;;2.83;;
76296;SDS011;65104;52.994;6.552;2023-01-10T07:09:32;18.75;;;3.05;;
76296;SDS011;65104;52.994;6.552;2023-01-10T07:11:58;11.77;;;3.42;;
76296;SDS011;65104;52.994;6.552;2023-01-10T07:14:23;16.38;;;3.38;;
76296;SDS011;65104;52.994;6.552;2023-01-10T07:16:49;13.30;;;3.38;;
76296;SDS011;65104;52.994;6.552;2023-01-10T07:19:15;13.32;;;2.88;;
76296;SDS011;65104;52.994;6.552;2023-01-10T07:21:43;10.27;;;3.33;;
76296;SDS011;65104;52.994;6.552;2023-01-10T07:24:08;11.32;;;4.22;;
76296;SDS011;65104;52.994;6.552;2023-01-10T07:26:35;13.77;;;3.35;;
76296;SDS011;65104;52.994;6.552;2023-01-10T07:29:01;13.50;;;4.20;;
76296;SDS011;65104;52.994;6.552;2023-01-10T07:31:27;14.52;;;3.88;;
76296;SDS011;65104;52.994;6.552;2023-01-10T07:33:53;10.45;;;3.30;;
76296;SDS011;65104;52.994;6.552;2023-01-10T07:36:18;14.52;;;3.38;;
76296;SDS011;65104;52.994;6.552;2023-01-10T07:38:45;20.45;;;4.20;;
76296;SDS011;65104;52.994;6.552;2023-01-10T07:41:10;14.40;;;3.35;;
76296;SDS011;65104;52.994;6.552;2023-01-10T07:43:37;15.80;;;2.97;;
76296;SDS011;65104;52.994;6.552;2023-01-10T07:46:03;18.48;;;3.78;;
76296;SDS011;65104;52.994;6.552;2023-01-10T07:48:35;16.02;;;2.97;;
76296;SDS011;65104;52.994;6.552;2023-01-10T07:51:01;6.90;;;2.78;;
76296;SDS011;65104;52.994;6.552;2023-01-10T07:53:28;9.35;;;3.60;;
76296;SDS011;65104;52.994;6.552;2023-01-10T07:55:57;10.00;;;3.13;;
76296;SDS011;65104;52.994;6.552;2023-01-10T07:58:23;11.43;;;2.90;;
76296;SDS011;65104;52.994;6.552;2023-01-10T08:00:50;11.90;;;3.45;;
76296;SDS011;65104;52.994;6.552;2023-01-10T08:03:16;14.82;;;4.00;;
76296;SDS011;65104;52.994;6.552;2023-01-10T08:05:42;14.32;;;3.05;;
76296;SDS011;65104;52.994;6.552;2023-01-10T08:08:09;14.30;;;4.18;;
76296;SDS011;65104;52.994;6.552;2023-01-10T08:10:37;17.67;;;3.70;;
76296;SDS011;65104;52.994;6.552;2023-01-10T08:13:05;15.55;;;3.60;;
76296;SDS011;65104;52.994;6.552;2023-01-10T08:15:30;15.13;;;3.25;;
76296;SDS011;65104;52.994;6.552;2023-01-10T08:18:00;13.30;;;3.63;;
76296;SDS011;65104;52.994;6.552;2023-01-10T08:20:26;15.75;;;3.78;;
76296;SDS011;65104;52.994;6.552;2023-01-10T08:22:53;14.20;;;3.85;;
76296;SDS011;65104;52.994;6.552;2023-01-10T08:25:21;16.70;;;4.28;;
76296;SDS011;65104;52.994;6.552;2023-01-10T08:27:46;14.13;;;3.88;;
76296;SDS011;65104;52.994;6.552;2023-01-10T08:30:12;12.95;;;3.17;;
76296;SDS011;65104;52.994;6.552;2023-01-10T08:32:39;16.17;;;3.63;;
76296;SDS011;65104;52.994;6.552;2023-01-10T08:35:05;12.00;;;3.15;;
76296;SDS011;65104;52.994;6.552;2023-01-10T08:37:30;16.38;;;4.28;;
76296;SDS011;65104;52.994;6.552;2023-01-10T08:39:57;13.25;;;2.90;;
76296;SDS011;65104;52.994;6.552;2023-01-10T08:42:23;16.08;;;2.92;;
76296;SDS011;65104;52.994;6.552;2023-01-10T08:44:49;10.50;;;2.80;;
76296;SDS011;65104;52.994;6.552;2023-01-10T08:47:14;8.48;;;2.50;;
76296;SDS011;65104;52.994;6.552;2023-01-10T08:49:41;14.85;;;3.97;;
76296;SDS011;65104;52.994;6.552;2023-01-10T08:52:07;14.32;;;3.28;;
76296;SDS011;65104;52.994;6.552;2023-01-10T08:54:32;11.93;;;3.15;;
76296;SDS011;65104;52.994;6.552;2023-01-10T08:56:58;15.02;;;2.83;;
76296;SDS011;65104;52.994;6.552;2023-01-10T08:59:24;9.85;;;3.92;;
76296;SDS011;65104;52.994;6.552;2023-01-10T09:01:49;14.23;;;3.10;;
76296;SDS011;65104;52.994;6.552;2023-01-10T09:04:16;15.95;;;3.10;;
76296;SDS011;65104;52.994;6.552;2023-01-10T09:06:41;13.10;;;3.45;;
76296;SDS011;65104;52.994;6.552;2023-01-10T09:09:07;11.35;;;3.05;;
76296;SDS011;65104;52.994;6.552;2023-01-10T09:11:34;11.55;;;3.58;;
76296;SDS011;65104;52.994;6.552;2023-01-10T09:14:01;12.82;;;2.92;;
76296;SDS011;65104;52.994;6.552;2023-01-10T09:16:26;13.90;;;3.20;;
76296;SDS011;65104;52.994;6.552;2023-01-10T09:18:52;17.20;;;4.00;;
76296;SDS011;65104;52.994;6.552;2023-01-10T09:21:20;11.98;;;3.00;;
76296;SDS011;65104;52.994;6.552;2023-01-10T09:23:46;10.18;;;2.97;;
76296;SDS011;65104;52.994;6.552;2023-01-10T09:26:11;12.80;;;3.40;;
76296;SDS011;65104;52.994;6.552;2023-01-10T09:28:38;11.15;;;2.83;;
76296;SDS011;65104;52.994;6.552;2023-01-10T09:31:04;13.98;;;3.72;;
76296;SDS011;65104;52.994;6.552;2023-01-10T09:33:33;8.88;;;2.70;;
76296;SDS011;65104;52.994;6.552;2023-01-10T09:36:01;12.68;;;2.97;;
76296;SDS011;65104;52.994;6.552;2023-01-10T09:38:27;13.63;;;3.60;;
76296;SDS011;65104;52.994;6.552;2023-01-10T09:52:03;8.85;;;2.20;;
76296;SDS011;65104;52.994;6.552;2023-01-10T09:54:39;12.35;;;2.67;;
76296;SDS011;65104;52.994;6.552;2023-01-10T09:57:09;9.93;;;3.25;;
76296;SDS011;65104;52.994;6.552;2023-01-10T09:59:41;12.30;;;3.20;;
76296;SDS011;65104;52.994;6.552;2023-01-10T10:07:51;10.60;;;2.53;;
76296;SDS011;65104;52.994;6.552;2023-01-10T10:10:25;15.25;;;2.90;;
76296;SDS011;65104;52.994;6.552;2023-01-10T10:16:04;15.90;;;3.92;;
76296;SDS011;65104;52.994;6.552;2023-01-10T10:27:23;14.98;;;3.70;;
76296;SDS011;65104;52.994;6.552;2023-01-10T10:32:57;16.00;;;3.42;;
76296;SDS011;65104;52.994;6.552;2023-01-10T10:35:50;9.20;;;2.60;;
76296;SDS011;65104;52.994;6.552;2023-01-10T10:38:25;11.13;;;3.00;;
76296;SDS011;65104;52.994;6.552;2023-01-10T10:40:55;12.82;;;3.67;;
76296;SDS011;65104;52.994;6.552;2023-01-10T10:43:32;12.80;;;3.65;;
76296;SDS011;65104;52.994;6.552;2023-01-10T10:46:07;12.55;;;3.25;;
76296;SDS011;65104;52.994;6.552;2023-01-10T10:48:42;9.25;;;3.13;;
76296;SDS011;65104;52.994;6.552;2023-01-10T10:51:36;9.70;;;3.67;;
76296;SDS011;65104;52.994;6.552;2023-01-10T10:54:14;14.43;;;4.43;;
76296;SDS011;65104;52.994;6.552;2023-01-10T10:56:40;11.20;;;4.63;;
76296;SDS011;65104;52.994;6.552;2023-01-10T10:59:08;16.88;;;3.70;;
76296;SDS011;65104;52.994;6.552;2023-01-10T11:01:36;13.95;;;4.47;;
76296;SDS011;65104;52.994;6.552;2023-01-10T11:04:07;13.20;;;4.32;;
76296;SDS011;65104;52.994;6.552;2023-01-10T11:06:36;13.48;;;4.40;;
76296;SDS011;65104;52.994;6.552;2023-01-10T11:09:06;14.20;;;4.28;;
76296;SDS011;65104;52.994;6.552;2023-01-10T11:11:34;19.55;;;5.97;;
76296;SDS011;65104;52.994;6.552;2023-01-10T11:14:05;18.75;;;4.72;;
76296;SDS011;65104;52.994;6.552;2023-01-10T11:16:33;19.95;;;5.78;;
76296;SDS011;65104;52.994;6.552;2023-01-10T11:21:55;16.90;;;5.70;;
76296;SDS011;65104;52.994;6.552;2023-01-10T11:24:28;12.52;;;5.40;;
76296;SDS011;65104;52.994;6.552;2023-01-10T11:26:57;15.05;;;5.85;;
76296;SDS011;65104;52.994;6.552;2023-01-10T11:35:07;20.17;;;6.30;;
76296;SDS011;65104;52.994;6.552;2023-01-10T11:37:41;20.33;;;6.97;;
76296;SDS011;65104;52.994;6.552;2023-01-10T11:40:26;15.55;;;7.32;;
76296;SDS011;65104;52.994;6.552;2023-01-10T11:42:53;23.00;;;6.85;;
76296;SDS011;65104;52.994;6.552;2023-01-10T11:45:22;14.35;;;5.38;;
76296;SDS011;65104;52.994;6.552;2023-01-10T11:47:55;13.63;;;6.00;;
76296;SDS011;65104;52.994;6.552;2023-01-10T11:50:27;19.98;;;6.85;;
76296;SDS011;65104;52.994;6.552;2023-01-10T11:52:57;13.90;;;6.63;;
76296;SDS011;65104;52.994;6.552;2023-01-10T11:55:24;17.10;;;6.20;;
76296;SDS011;65104;52.994;6.552;2023-01-10T11:57:57;14.98;;;5.47;;
76296;SDS011;65104;52.994;6.552;2023-01-10T12:00:45;15.13;;;6.07;;
76296;SDS011;65104;52.994;6.552;2023-01-10T12:03:25;16.27;;;4.70;;
76296;SDS011;65104;52.994;6.552;2023-01-10T12:05:55;14.10;;;4.57;;
76296;SDS011;65104;52.994;6.552;2023-01-10T12:08:26;18.52;;;5.50;;
76296;SDS011;65104;52.994;6.552;2023-01-10T12:10:55;14.07;;;5.30;;
76296;SDS011;65104;52.994;6.552;2023-01-10T12:13:23;13.82;;;4.72;;
76296;SDS011;65104;52.994;6.552;2023-01-10T12:15:52;12.15;;;3.85;;
76296;SDS011;65104;52.994;6.552;2023-01-10T12:18:38;13.32;;;4.07;;
76296;SDS011;65104;52.994;6.552;2023-01-10T12:21:04;13.05;;;4.13;;
76296;SDS011;65104;52.994;6.552;2023-01-10T12:23:32;18.20;;;4.88;;
76296;SDS011;65104;52.994;6.552;2023-01-10T12:26:06;14.18;;;4.95;;
76296;SDS011;65104;52.994;6.552;2023-01-10T12:28:34;14.85;;;4.22;;
76296;SDS011;65104;52.994;6.552;2023-01-10T12:31:01;11.25;;;3.65;;
76296;SDS011;65104;52.994;6.552;2023-01-10T12:33:37;13.10;;;3.90;;
76296;SDS011;65104;52.994;6.552;2023-01-10T12:38:52;8.43;;;2.88;;
76296;SDS011;65104;52.994;6.552;2023-01-10T12:41:45;12.65;;;4.07;;
76296;SDS011;65104;52.994;6.552;2023-01-10T12:44:44;12.68;;;3.45;;
76296;SDS011;65104;52.994;6.552;2023-01-10T12:47:31;13.80;;;3.70;;
76296;SDS011;65104;52.994;6.552;2023-01-10T12:50:19;12.57;;;3.55;;
76296;SDS011;65104;52.994;6.552;2023-01-10T12:56:00;13.13;;;3.63;;
76296;SDS011;65104;52.994;6.552;2023-01-10T12:58:42;10.77;;;3.88;;
76296;SDS011;65104;52.994;6.552;2023-01-10T13:01:30;14.30;;;3.35;;
76296;SDS011;65104;52.994;6.552;2023-01-10T13:04:02;13.18;;;3.47;;
76296;SDS011;65104;52.994;6.552;2023-01-10T13:06:33;13.32;;;3.28;;
76296;SDS011;65104;52.994;6.552;2023-01-10T13:09:03;12.05;;;4.38;;
76296;SDS011;65104;52.994;6.552;2023-01-10T13:11:33;8.93;;;3.45;;
76296;SDS011;65104;52.994;6.552;2023-01-10T13:14:02;11.75;;;3.50;;
76296;SDS011;65104;52.994;6.552;2023-01-10T13:21:31;15.60;;;4.20;;
76296;SDS011;65104;52.994;6.552;2023-01-10T13:24:03;12.88;;;3.72;;
76296;SDS011;65104;52.994;6.552;2023-01-10T13:26:51;12.55;;;3.90;;
76296;SDS011;65104;52.994;6.552;2023-01-10T13:29:22;11.18;;;3.65;;
76296;SDS011;65104;52.994;6.552;2023-01-10T13:31:50;9.52;;;3.70;;
76296;SDS011;65104;52.994;6.552;2023-01-10T13:34:39;14.38;;;4.20;;
76296;SDS011;65104;52.994;6.552;2023-01-10T13:37:26;18.63;;;4.53;;
76296;SDS011;65104;52.994;6.552;2023-01-10T13:40:00;9.38;;;3.13;;
76296;SDS011;65104;52.994;6.552;2023-01-10T13:42:30;11.30;;;4.13;;
76296;SDS011;65104;52.994;6.552;2023-01-10T13:45:25;16.45;;;4.45;;
76296;SDS011;65104;52.994;6.552;2023-01-10T14:11:20;11.43;;;3.00;;
76296;SDS011;65104;52.994;6.552;2023-01-10T14:13:52;13.02;;;3.15;;
76296;SDS011;65104;52.994;6.552;2023-01-10T14:16:31;12.45;;;2.88;;
76296;SDS011;65104;52.994;6.552;2023-01-10T14:19:00;11.07;;;3.75;;
76296;SDS011;65104;52.994;6.552;2023-01-10T14:21:29;8.43;;;2.50;;
76296;SDS011;65104;52.994;6.552;2023-01-10T14:23:58;13.50;;;2.63;;
76296;SDS011;65104;52.994;6.552;2023-01-10T14:26:31;16.08;;;3.90;;
76296;SDS011;65104;52.994;6.552;2023-01-10T14:29:04;12.27;;;2.65;;
76296;SDS011;65104;52.994;6.552;2023-01-10T14:31:34;8.48;;;2.65;;
76296;SDS011;65104;52.994;6.552;2023-01-10T14:34:02;13.82;;;3.08;;
76296;SDS011;65104;52.994;6.552;2023-01-10T14:36:32;16.42;;;3.17;;
76296;SDS011;65104;52.994;6.552;2023-01-10T14:39:04;7.38;;;2.35;;
76296;SDS011;65104;52.994;6.552;2023-01-10T14:41:35;9.93;;;2.15;;
76296;SDS011;65104;52.994;6.552;2023-01-10T14:44:40;7.80;;;2.05;;
76296;SDS011;65104;52.994;6.552;2023-01-10T14:46:59;8.95;;;1.83;;
76296;SDS011;65104;52.994;6.552;2023-01-10T14:49:29;12.18;;;2.70;;
76296;SDS011;65104;52.994;6.552;2023-01-10T14:54:44;11.77;;;2.50;;
76296;SDS011;65104;52.994;6.552;2023-01-10T14:57:17;17.17;;;3.65;;
76296;SDS011;65104;52.994;6.552;2023-01-10T14:59:44;9.35;;;1.90;;
76296;SDS011;65104;52.994;6.552;2023-01-10T15:02:18;10.93;;;2.38;;
76296;SDS011;65104;52.994;6.552;2023-01-10T15:04:58;10.43;;;2.45;;
76296;SDS011;65104;52.994;6.552;2023-01-10T15:07:27;8.07;;;2.40;;
76296;SDS011;65104;52.994;6.552;2023-01-10T15:09:54;13.85;;;4.05;;
76296;SDS011;65104;52.994;6.552;2023-01-10T15:12:26;10.02;;;2.75;;
76296;SDS011;65104;52.994;6.552;2023-01-10T15:15:05;17.88;;;3.13;;
76296;SDS011;65104;52.994;6.552;2023-01-10T15:17:37;7.53;;;2.75;;
76296;SDS011;65104;52.994;6.552;2023-01-10T15:20:03;8.82;;;2.30;;
76296;SDS011;65104;52.994;6.552;2023-01-10T15:22:31;11.63;;;2.47;;
76296;SDS011;65104;52.994;6.552;2023-01-10T15:25:00;10.60;;;2.17;;
76296;SDS011;65104;52.994;6.552;2023-01-10T15:27:28;10.45;;;2.30;;
76296;SDS011;65104;52.994;6.552;2023-01-10T15:29:54;10.55;;;2.67;;
76296;SDS011;65104;52.994;6.552;2023-01-10T15:34:51;16.70;;;2.38;;
76296;SDS011;65104;52.994;6.552;2023-01-10T15:37:20;12.85;;;3.08;;
76296;SDS011;65104;52.994;6.552;2023-01-10T15:39:49;11.07;;;2.33;;
76296;SDS011;65104;52.994;6.552;2023-01-10T15:42:17;13.23;;;2.78;;
76296;SDS011;65104;52.994;6.552;2023-01-10T15:44:46;10.63;;;2.50;;
76296;SDS011;65104;52.994;6.552;2023-01-10T15:52:46;11.10;;;1.98;;
76296;SDS011;65104;52.994;6.552;2023-01-10T15:55:33;12.55;;;2.70;;
76296;SDS011;65104;52.994;6.552;2023-01-10T15:57:59;8.73;;;2.10;;
76296;SDS011;65104;52.994;6.552;2023-01-10T16:00:26;11.35;;;2.90;;
76296;SDS011;65104;52.994;6.552;2023-01-10T16:02:54;11.68;;;3.05;;
76296;SDS011;65104;52.994;6.552;2023-01-10T16:05:20;12.65;;;2.83;;
76296;SDS011;65104;52.994;6.552;2023-01-10T16:07:46;7.50;;;2.13;;
76296;SDS011;65104;52.994;6.552;2023-01-10T16:12:44;11.95;;;2.47;;
76296;SDS011;65104;52.994;6.552;2023-01-10T16:15:30;6.13;;;1.70;;
76296;SDS011;65104;52.994;6.552;2023-01-10T16:18:02;9.35;;;2.40;;
76296;SDS011;65104;52.994;6.552;2023-01-10T16:20:35;11.50;;;3.08;;
76296;SDS011;65104;52.994;6.552;2023-01-10T16:23:03;12.35;;;2.65;;
76296;SDS011;65104;52.994;6.552;2023-01-10T16:25:34;10.52;;;2.90;;
76296;SDS011;65104;52.994;6.552;2023-01-10T16:28:04;7.60;;;2.47;;
76296;SDS011;65104;52.994;6.552;2023-01-10T16:30:31;11.57;;;3.08;;
76296;SDS011;65104;52.994;6.552;2023-01-10T16:33:08;11.75;;;3.03;;
76296;SDS011;65104;52.994;6.552;2023-01-10T16:35:35;16.70;;;3.70;;
76296;SDS011;65104;52.994;6.552;2023-01-10T16:38:01;12.20;;;2.63;;
76296;SDS011;65104;52.994;6.552;2023-01-10T16:40:32;15.55;;;3.72;;
76296;SDS011;65104;52.994;6.552;2023-01-10T16:43:01;12.68;;;3.85;;
76296;SDS011;65104;52.994;6.552;2023-01-10T16:48:17;11.95;;;3.20;;
76296;SDS011;65104;52.994;6.552;2023-01-10T16:50:44;14.05;;;2.95;;
76296;SDS011;65104;52.994;6.552;2023-01-10T16:53:11;13.35;;;3.08;;
76296;SDS011;65104;52.994;6.552;2023-01-10T16:58:14;16.63;;;4.20;;
76296;SDS011;65104;52.994;6.552;2023-01-10T17:00:42;14.27;;;3.28;;
76296;SDS011;65104;52.994;6.552;2023-01-10T17:03:17;9.35;;;3.05;;
76296;SDS011;65104;52.994;6.552;2023-01-10T17:05:46;8.25;;;3.08;;
76296;SDS011;65104;52.994;6.552;2023-01-10T17:08:17;9.27;;;2.65;;
76296;SDS011;65104;52.994;6.552;2023-01-10T17:10:46;5.88;;;2.20;;
76296;SDS011;65104;52.994;6.552;2023-01-10T17:13:35;9.32;;;2.65;;
76296;SDS011;65104;52.994;6.552;2023-01-10T17:16:04;7.43;;;2.22;;
76296;SDS011;65104;52.994;6.552;2023-01-10T17:18:30;7.95;;;2.25;;
76296;SDS011;65104;52.994;6.552;2023-01-10T17:20:56;9.50;;;2.35;;
76296;SDS011;65104;52.994;6.552;2023-01-10T17:23:23;10.90;;;2.55;;
76296;SDS011;65104;52.994;6.552;2023-01-10T17:26:02;9.98;;;2.40;;